Time;durP1;ratioP1;P1;durP2;ratioP2;P2;SDS_P1;SDS_P2;PMS_P1;PMS_P2;Temp;Humidity;BMP_temperature;BMP_pressure;BME280_temperature;BME280_humidity;BME280_pressure;Samples;Min_cycle;Max_cycle;Signal;HPM_P1;HPM_P2
2023/03/21 00:00:58;;;;;;;;;64.67;52.33;;;;;8.76;84.61;99525.25;6279825;20;2864925;-59
2023/03/21 00:03:27;;;;;;;;;58.00;47.00;;;;;8.84;84.64;99524.84;6310788;20;2859672;-59
2023/03/21 00:05:56;;;;;;;;;61.50;51.00;;;;;8.82;84.83;99518.72;6280601;20;2868032;-60
2023/03/21 00:08:26;;;;;;;;;60.00;46.67;;;;;8.87;85.27;99521.97;6280135;20;3627602;-59
2023/03/21 00:10:59;;;;;;;;;56.00;46.00;;;;;9.05;84.71;99516.53;6308576;20;2855520;-58
2023/03/21 00:13:37;;;;;;;;;58.00;48.00;;;;;9.00;85.00;99508.75;6281022;20;2869009;-59
2023/03/21 00:16:17;;;;;;;;;62.67;51.00;;;;;8.87;85.03;99516.63;6307674;20;2877517;-60
2023/03/21 00:18:57;;;;;;;;;59.00;48.00;;;;;8.72;85.40;99507.66;6310668;20;2865983;-59
2023/03/21 00:21:32;;;;;;;;;64.00;49.00;;;;;8.44;86.00;99508.34;6308914;20;3635742;-60
2023/03/21 00:24:22;;;;;;;;;60.00;49.00;;;;;8.57;86.05;99498.69;6309305;20;3592957;-58
2023/03/21 00:26:52;;;;;;;;;56.00;45.33;;;;;8.78;86.06;99509.97;6313782;20;2854590;-60
2023/03/21 00:29:21;;;;;;;;;56.00;46.00;;;;;8.91;85.62;99507.47;6313301;20;2844078;-59
2023/03/21 00:31:50;;;;;;;;;53.50;43.50;;;;;8.98;85.91;99500.81;6283232;20;2859783;-60
2023/03/21 00:34:19;;;;;;;;;59.00;46.50;;;;;8.99;85.85;99499.00;6283392;20;2875241;-59
2023/03/21 00:37:06;;;;;;;;;53.50;44.00;;;;;9.12;85.97;99497.31;6279977;20;2849200;-59
2023/03/21 00:39:35;;;;;;;;;53.00;44.00;;;;;9.15;85.90;99488.25;6285292;20;2855619;-59
2023/03/21 00:42:04;;;;;;;;;54.00;44.00;;;;;9.12;86.00;99493.78;6283905;20;2849303;-59
2023/03/21 00:44:35;;;;;;;;;55.00;45.00;;;;;9.10;86.04;99477.81;6285629;20;2856569;-59
2023/03/21 00:47:05;;;;;;;;;57.00;45.00;;;;;9.11;86.36;99481.34;6284614;20;2871218;-59
2023/03/21 00:49:37;;;;;;;;;56.00;45.00;;;;;9.18;86.30;99478.22;6283546;20;2855674;-59
2023/03/21 00:52:09;;;;;;;;;56.67;44.67;;;;;9.23;86.49;99472.59;6284262;20;2858659;-60
2023/03/21 00:54:58;;;;;;;;;50.00;42.00;;;;;9.29;86.50;99480.25;6311068;20;2852494;-59
2023/03/21 00:57:27;;;;;;;;;50.50;42.50;;;;;9.34;86.72;99471.94;6284970;20;2862947;-59
2023/03/21 01:00:13;;;;;;;;;55.50;44.50;;;;;9.23;87.22;99467.22;6285598;20;2846139;-58
2023/03/21 01:02:55;;;;;;;;;58.00;45.50;;;;;9.18;87.35;99467.50;6281258;20;2864921;-60
2023/03/21 01:06:03;;;;;;;;;53.00;43.00;;;;;9.25;87.89;99462.66;6282941;20;2772187;-59
2023/03/21 01:08:37;;;;;;;;;55.00;43.50;;;;;9.22;88.04;99460.16;6281968;20;2854524;-56
2023/03/21 01:11:27;;;;;;;;;50.50;43.50;;;;;9.19;87.94;99463.88;6282401;20;2858624;-59
2023/03/21 01:13:56;;;;;;;;;53.00;44.00;;;;;9.26;88.40;99460.81;6280951;20;2863893;-59
2023/03/21 01:16:38;;;;;;;;;46.50;40.50;;;;;9.42;88.03;99457.13;6282312;20;2845304;-60
2023/03/21 01:19:15;;;;;;;;;50.67;39.00;;;;;9.64;87.14;99454.00;6282697;20;2854432;-59
2023/03/21 01:21:56;;;;;;;;;45.50;37.50;;;;;9.76;86.55;99463.09;6310921;20;2849270;-59
2023/03/21 01:24:25;;;;;;;;;46.50;40.50;;;;;9.81;86.15;99455.63;6282302;20;2851376;-59
2023/03/21 01:26:54;;;;;;;;;50.33;43.00;;;;;9.89;85.63;99456.00;6283004;20;2861991;-59
2023/03/21 01:29:23;;;;;;;;;49.00;41.00;;;;;9.96;85.41;99453.81;6313883;20;2839835;-59
2023/03/21 01:31:52;;;;;;;;;53.00;40.00;;;;;9.98;85.24;99445.66;6281644;20;2842991;-58
2023/03/21 01:34:21;;;;;;;;;44.00;36.00;;;;;10.07;85.02;99447.78;6284143;20;2815024;-59
2023/03/21 01:36:50;;;;;;;;;46.50;38.50;;;;;10.13;84.67;99444.69;6277437;20;2845079;-59
2023/03/21 01:39:20;;;;;;;;;44.33;36.00;;;;;10.26;84.27;99442.09;6280459;20;2860691;-59
2023/03/21 01:41:49;;;;;;;;;41.67;37.33;;;;;10.35;84.02;99440.66;6314185;20;3607493;-60
2023/03/21 01:44:19;;;;;;;;;48.50;39.00;;;;;10.31;84.17;99443.56;6284947;20;2844016;-59
2023/03/21 01:46:52;;;;;;;;;42.67;37.33;;;;;10.41;83.80;99443.84;6279309;20;2862793;-60
2023/03/21 01:49:44;;;;;;;;;46.00;40.00;;;;;10.46;83.48;99435.50;6312638;20;2860837;-59
2023/03/21 01:52:22;;;;;;;;;44.50;40.00;;;;;10.54;82.92;99442.06;6308849;20;2837786;-59
2023/03/21 01:55:11;;;;;;;;;47.33;39.33;;;;;10.49;82.88;99441.50;6281319;20;2852429;-60
2023/03/21 01:57:48;;;;;;;;;43.33;36.67;;;;;10.45;83.15;99440.00;6313431;20;3601310;-59
2023/03/21 02:00:35;;;;;;;;;45.00;35.50;;;;;10.40;83.37;99438.56;6278280;20;2869135;-59
2023/03/21 02:03:10;;;;;;;;;51.00;40.00;;;;;10.30;83.74;99441.84;6282906;20;3602367;-60
2023/03/21 02:06:11;;;;;;;;;44.67;36.00;;;;;10.32;83.63;99439.94;6280882;20;2867055;-59
2023/03/21 02:08:44;;;;;;;;;50.00;40.00;;;;;10.19;83.89;99440.75;6310501;20;2864966;-60
2023/03/21 02:11:13;;;;;;;;;49.50;39.50;;;;;9.72;86.08;99445.50;6308541;20;2844009;-59
2023/03/21 02:13:42;;;;;;;;;52.33;43.00;;;;;9.51;87.08;99441.47;6282074;20;2871173;-59
2023/03/21 02:16:28;;;;;;;;;48.00;40.50;;;;;9.41;87.16;99439.31;6312383;20;2839856;-59
2023/03/21 02:19:20;;;;;;;;;51.33;42.00;;;;;9.29;87.88;99442.75;6281421;20;2855514;-59
2023/03/21 02:22:47;;;;;;;;;50.00;39.67;;;;;9.19;88.07;99431.75;6311481;20;2862782;-59
2023/03/21 02:25:58;;;;;;;;;54.33;42.33;;;;;9.44;87.70;99440.97;6313283;20;2860777;-58
2023/03/21 02:28:55;;;;;;;;;44.00;37.00;;;;;9.56;87.12;99439.38;6309311;20;3611774;-59
2023/03/21 02:32:12;;;;;;;;;48.33;40.33;;;;;9.95;85.82;99446.72;6310074;20;2855452;-59
2023/03/21 02:35:32;;;;;;;;;45.00;38.67;;;;;9.88;85.39;99448.94;6312004;20;2854505;-59
2023/03/21 02:38:35;;;;;;;;;50.00;39.50;;;;;9.62;86.35;99444.34;6311319;20;2837910;-59
2023/03/21 02:41:19;;;;;;;;;46.00;37.50;;;;;9.49;86.92;99438.00;6282138;20;2840928;-59
2023/03/21 02:44:07;;;;;;;;;48.50;40.00;;;;;9.57;86.69;99446.44;6281914;20;2851327;-59
2023/03/21 02:47:19;;;;;;;;;47.00;39.00;;;;;9.55;86.83;99440.31;6277808;20;2861795;-60
2023/03/21 02:49:57;;;;;;;;;52.00;41.00;;;;;9.53;86.55;99439.53;6311795;20;2868042;-60
2023/03/21 02:52:32;;;;;;;;;55.00;43.67;;;;;9.71;85.66;99437.53;6311675;20;2865032;-59
2023/03/21 02:55:17;;;;;;;;;60.67;49.33;;;;;9.74;85.63;99440.91;6309536;20;3608622;-59
2023/03/21 02:57:51;;;;;;;;;59.67;47.00;;;;;9.84;85.37;99450.06;6308408;20;2879800;-59
2023/03/21 03:00:27;;;;;;;;;58.67;47.00;;;;;9.80;85.40;99447.72;6309448;20;3621151;-58
2023/03/21 03:02:57;;;;;;;;;53.67;43.00;;;;;9.63;85.81;99446.06;6309795;20;2873452;-60
2023/03/21 03:06:17;;;;;;;;;52.00;42.67;;;;;9.62;85.99;99449.69;6314026;20;2858125;-58
2023/03/21 03:09:17;;;;;;;;;50.00;40.50;;;;;9.60;86.42;99452.47;6309800;20;2856680;-59
2023/03/21 03:12:01;;;;;;;;;51.33;41.00;;;;;9.70;86.66;99455.44;6278617;20;2883817;-59
2023/03/21 03:15:12;;;;;;;;;51.33;40.67;;;;;9.86;86.13;99458.03;6311634;20;3589944;-59
2023/03/21 03:18:06;;;;;;;;;51.00;41.50;;;;;9.61;86.48;99456.88;6272272;20;2852359;-59
2023/03/21 03:21:14;;;;;;;;;46.00;40.00;;;;;9.57;87.04;99457.16;6278782;20;2871191;-58
2023/03/21 03:24:08;;;;;;;;;51.67;41.00;;;;;9.59;87.05;99449.91;6307259;20;2848211;-59
2023/03/21 03:27:18;;;;;;;;;51.67;43.00;;;;;9.49;87.39;99451.41;6311885;20;2867080;-59
2023/03/21 03:29:50;;;;;;;;;54.33;42.00;;;;;9.50;87.63;99450.44;6309600;20;3603521;-59
2023/03/21 03:32:35;;;;;;;;;48.33;39.00;;;;;9.50;87.79;99450.44;6308416;20;2860668;-60
2023/03/21 03:35:06;;;;;;;;;52.33;42.67;;;;;9.56;87.81;99452.75;6310597;20;2858583;-59
2023/03/21 03:37:36;;;;;;;;;48.50;41.50;;;;;9.49;88.27;99448.72;6306951;20;2849773;-60
2023/03/21 03:40:27;;;;;;;;;48.00;39.50;;;;;9.57;88.12;99451.81;6276929;20;2839900;-60
2023/03/21 03:43:05;;;;;;;;;51.50;42.00;;;;;9.57;88.15;99446.44;6278331;20;2850394;-59
2023/03/21 03:45:47;;;;;;;;;46.50;41.00;;;;;9.63;87.93;99446.91;6277257;20;2850230;-59
2023/03/21 03:48:30;;;;;;;;;45.50;40.00;;;;;9.47;88.93;99445.28;6276369;20;2839892;-59
2023/03/21 03:51:55;;;;;;;;;47.67;36.33;;;;;9.74;88.14;99448.94;6275365;20;2872138;-59
2023/03/21 03:54:41;;;;;;;;;50.67;39.00;;;;;9.95;87.00;99441.34;6305197;20;2863832;-60
2023/03/21 03:57:12;;;;;;;;;37.00;33.00;;;;;10.05;86.57;99438.97;6305278;20;3569061;-59
2023/03/21 03:59:44;;;;;;;;;39.00;35.00;;;;;10.06;86.45;99448.75;6307786;20;3593379;-59
2023/03/21 04:02:15;;;;;;;;;50.00;40.00;;;;;10.03;86.69;99443.56;6279810;20;2854445;-60
2023/03/21 04:04:45;;;;;;;;;50.00;38.50;;;;;9.93;86.79;99448.66;6282835;20;2877387;-59
2023/03/21 04:07:14;;;;;;;;;44.50;38.50;;;;;9.98;86.83;99457.28;6285602;20;2849362;-59
2023/03/21 04:09:44;;;;;;;;;41.00;37.50;;;;;9.78;87.17;99453.16;6285324;20;2855534;-60
2023/03/21 04:12:14;;;;;;;;;45.00;37.67;;;;;9.82;87.38;99457.38;6283824;20;2857753;-59
2023/03/21 04:14:42;;;;;;;;;44.33;37.33;;;;;9.82;87.12;99462.75;6318814;20;3617090;-58
2023/03/21 04:17:16;;;;;;;;;47.00;38.33;;;;;9.73;87.84;99457.06;6284651;20;2852454;-57
2023/03/21 04:19:45;;;;;;;;;43.50;37.00;;;;;9.74;88.17;99458.78;6316548;20;2852453;-58
2023/03/21 04:22:15;;;;;;;;;44.00;38.00;;;;;9.81;87.93;99458.31;6284068;20;2864890;-59
2023/03/21 04:24:45;;;;;;;;;44.67;38.00;;;;;9.71;88.20;99459.84;6315925;20;3607771;-59
2023/03/21 04:27:14;;;;;;;;;43.00;39.50;;;;;9.67;88.74;99458.31;6315895;20;2844067;-58
2023/03/21 04:29:44;;;;;;;;;46.00;37.00;;;;;9.72;88.68;99460.72;6284653;20;3606492;-58
2023/03/21 04:32:18;;;;;;;;;45.33;37.67;;;;;9.83;88.30;99464.44;6315549;20;2866954;-59
2023/03/21 04:34:52;;;;;;;;;43.67;38.33;;;;;9.86;88.41;99464.25;6312094;20;2862801;-58
2023/03/21 04:37:22;;;;;;;;;44.00;40.00;;;;;9.94;88.26;99462.94;6315845;20;2850281;-59
2023/03/21 04:39:51;;;;;;;;;44.00;37.50;;;;;9.97;87.92;99462.72;6284171;20;2664940;-58
2023/03/21 04:42:20;;;;;;;;;39.67;35.67;;;;;9.97;87.88;99460.91;6313331;20;2854470;-59
2023/03/21 04:44:49;;;;;;;;;39.67;36.33;;;;;9.98;88.16;99467.13;6315193;20;3610695;-59
2023/03/21 04:47:19;;;;;;;;;51.00;39.50;;;;;9.96;88.31;99459.19;6284609;20;2861868;-59
2023/03/21 04:49:48;;;;;;;;;41.33;34.67;;;;;9.83;88.97;99467.13;6282409;20;3607540;-58
2023/03/21 04:52:17;;;;;;;;;36.00;34.33;;;;;9.80;89.40;99470.00;6314635;20;3599436;-59
2023/03/21 04:54:46;;;;;;;;;43.50;36.50;;;;;9.87;89.28;99471.38;6284098;20;2848232;-59
2023/03/21 04:57:14;;;;;;;;;40.00;35.33;;;;;9.81;89.65;99471.72;6287214;20;3596107;-58
2023/03/21 04:59:43;;;;;;;;;37.00;34.00;;;;;9.78;89.17;99471.06;6276124;20;2848203;-60
2023/03/21 05:02:13;;;;;;;;;44.00;36.00;;;;;9.70;89.43;99471.53;6283299;20;2851346;-59
2023/03/21 05:04:42;;;;;;;;;35.33;32.33;;;;;9.71;89.78;99475.06;6314609;20;3588130;-58
2023/03/21 05:07:12;;;;;;;;;39.00;34.67;;;;;9.77;89.42;99470.22;6283890;20;2852462;-58
2023/03/21 05:09:40;;;;;;;;;38.00;33.50;;;;;9.66;89.83;99468.19;6310064;20;2864945;-59
2023/03/21 05:12:09;;;;;;;;;38.33;35.67;;;;;9.81;89.13;99469.03;6281461;20;3602380;-58
2023/03/21 05:14:38;;;;;;;;;37.50;33.50;;;;;9.77;89.01;99467.53;6283948;20;2831541;-59
2023/03/21 05:17:09;;;;;;;;;33.33;31.33;;;;;9.73;89.00;99471.34;6284392;20;2869359;-58
2023/03/21 05:19:39;;;;;;;;;37.50;34.00;;;;;9.74;89.28;99481.13;6315710;20;2853527;-58
2023/03/21 05:22:10;;;;;;;;;39.00;34.33;;;;;9.94;88.39;99470.97;6286540;20;3581562;-59
2023/03/21 05:24:40;;;;;;;;;39.67;31.67;;;;;10.06;87.65;99472.91;6316413;20;3625371;-59
2023/03/21 05:27:09;;;;;;;;;38.33;34.00;;;;;10.17;87.44;99467.72;6284367;20;3597274;-58
2023/03/21 05:29:39;;;;;;;;;39.67;34.33;;;;;10.15;87.23;99466.06;6284633;20;3597165;-58
2023/03/21 05:32:07;;;;;;;;;30.33;29.00;;;;;10.93;84.14;99471.78;6317530;20;3598608;-59
2023/03/21 05:34:37;;;;;;;;;35.00;32.33;;;;;10.62;84.46;99479.16;6282761;20;2843690;-59
2023/03/21 05:37:05;;;;;;;;;38.00;33.67;;;;;10.94;83.93;99468.97;6315317;20;3592944;-59
2023/03/21 05:39:35;;;;;;;;;36.00;32.33;;;;;11.14;82.52;99481.09;6281125;20;2853808;-59
2023/03/21 05:42:04;;;;;;;;;34.67;32.00;;;;;11.24;82.28;99481.31;6317893;20;3586712;-58
2023/03/21 05:44:32;;;;;;;;;35.33;32.00;;;;;11.52;81.90;99474.06;6314534;20;3578392;-59
2023/03/21 05:47:03;;;;;;;;;41.50;35.50;;;;;11.84;80.26;99479.88;6279768;20;2846209;-59
2023/03/21 05:49:33;;;;;;;;;56.33;44.00;;;;;11.95;80.12;99488.09;6280297;20;3623315;-60
2023/03/21 05:52:03;;;;;;;;;54.33;43.33;;;;;11.51;82.25;99483.09;6315078;20;3611710;-60
2023/03/21 05:54:31;;;;;;;;;32.00;31.00;;;;;11.95;80.35;99484.53;6316319;20;3587752;-60
2023/03/21 05:57:03;;;;;;;;;54.33;43.00;;;;;11.73;80.64;99493.22;6279362;20;2871193;-57
2023/03/21 05:59:32;;;;;;;;;41.00;36.50;;;;;12.21;78.47;99488.06;6313620;20;2853403;-59
2023/03/21 06:02:01;;;;;;;;;37.67;33.67;;;;;11.51;80.80;99486.66;6282272;20;3603434;-60
2023/03/21 06:04:31;;;;;;;;;37.67;33.00;;;;;12.47;77.97;99500.50;6279879;20;3612763;-60
2023/03/21 06:07:00;;;;;;;;;32.00;30.33;;;;;12.57;76.31;99500.72;6316409;20;3582719;-60
2023/03/21 06:09:29;;;;;;;;;27.00;27.00;;;;;11.82;78.94;99497.94;6282068;20;2853405;-58
2023/03/21 06:11:58;;;;;;;;;34.00;32.00;;;;;12.54;76.99;99510.88;6313120;20;3602513;-59
2023/03/21 06:14:27;;;;;;;;;36.00;33.00;;;;;12.84;74.39;99503.22;6288968;20;3604478;-58
2023/03/21 06:16:56;;;;;;;;;34.67;31.33;;;;;12.80;74.10;99501.72;6286326;20;3604438;-59
2023/03/21 06:19:26;;;;;;;;;36.33;33.00;;;;;13.29;73.64;99508.84;6282675;20;2855571;-58
2023/03/21 06:21:55;;;;;;;;;30.67;28.33;;;;;16.85;59.38;99522.72;6310701;20;2850508;-57
2023/03/21 06:24:25;;;;;;;;;30.33;28.33;;;;;19.78;46.94;99529.00;6313289;20;3596065;-59
2023/03/21 06:26:54;;;;;;;;;24.33;23.33;;;;;19.76;45.29;99531.03;6285141;20;3591923;-58
2023/03/21 06:29:23;;;;;;;;;26.33;24.67;;;;;20.39;45.12;99532.69;6285583;20;3588890;-59
2023/03/21 06:31:52;;;;;;;;;23.67;23.67;;;;;21.05;43.63;99539.31;6281626;20;3588808;-61
2023/03/21 06:34:20;;;;;;;;;31.00;27.00;;;;;20.67;44.41;99536.13;6284278;20;3619084;-60
2023/03/21 06:36:50;;;;;;;;;26.33;22.67;;;;;20.13;45.92;99535.41;6284154;20;3598293;-61
2023/03/21 06:39:20;;;;;;;;;30.00;27.00;;;;;22.34;41.18;99536.06;6283814;20;3572282;-59
2023/03/21 06:41:49;;;;;;;;;26.00;25.33;;;;;22.97;39.35;99542.56;6283722;20;3593006;-60
2023/03/21 06:44:17;;;;;;;;;23.67;20.00;;;;;24.39;36.05;99545.84;6285783;20;3576378;-55
2023/03/21 06:46:46;;;;;;;;;30.00;28.67;;;;;23.52;37.88;99540.72;6282969;20;3588797;-60
2023/03/21 06:49:15;;;;;;;;;25.67;24.67;;;;;24.30;35.62;99548.69;6285593;20;3586710;-59
2023/03/21 06:51:44;;;;;;;;;22.00;22.00;;;;;22.36;38.90;99542.22;6281449;20;3585721;-58
2023/03/21 06:54:13;;;;;;;;;22.33;22.00;;;;;22.94;38.75;99549.22;6286312;20;3578424;-59
2023/03/21 06:56:42;;;;;;;;;24.33;23.00;;;;;19.88;44.40;99539.81;6283484;20;3579465;-59
2023/03/21 06:59:11;;;;;;;;;25.00;23.67;;;;;19.43;46.36;99530.72;6285368;20;3579479;-59
2023/03/21 07:01:39;;;;;;;;;23.67;23.00;;;;;19.49;44.10;99535.53;6282205;20;3586865;-59
2023/03/21 07:04:09;;;;;;;;;21.00;21.00;;;;;17.76;49.92;99539.63;6276816;20;2842009;-59
2023/03/21 07:06:38;;;;;;;;;25.67;24.00;;;;;16.40;54.92;99533.94;6283399;20;3600389;-59
2023/03/21 07:09:07;;;;;;;;;19.50;18.50;;;;;16.81;54.81;99534.81;6280339;20;2823234;-59
2023/03/21 07:11:36;;;;;;;;;24.67;24.67;;;;;18.28;51.05;99536.56;6283803;20;3580455;-59
2023/03/21 07:14:05;;;;;;;;;27.33;24.33;;;;;21.41;43.22;99547.31;6281668;20;3600279;-58
2023/03/21 07:16:33;;;;;;;;;21.00;18.50;;;;;19.85;45.30;99541.00;6281454;20;2500298;-59
2023/03/21 07:19:02;;;;;;;;;25.67;23.00;;;;;22.98;37.50;99544.28;6284625;20;3591947;-59
2023/03/21 07:21:31;;;;;;;;;22.67;21.33;;;;;20.54;41.20;99541.16;6282764;20;3571109;-59
2023/03/21 07:24:00;;;;;;;;;22.67;22.67;;;;;17.96;50.34;99531.50;6284042;20;3578560;-60
2023/03/21 07:26:28;;;;;;;;;24.00;21.67;;;;;17.66;51.65;99527.91;6283497;20;3582586;-60
2023/03/21 07:28:57;;;;;;;;;21.00;21.00;;;;;18.30;49.52;99534.56;6284335;20;2833608;-60
2023/03/21 07:31:25;;;;;;;;;16.00;16.00;;;;;18.53;49.43;99532.31;6278539;20;2820101;-59
2023/03/21 07:33:54;;;;;;;;;17.33;17.33;;;;;18.56;48.58;99534.78;6285322;20;3561807;-59
2023/03/21 07:36:23;;;;;;;;;21.67;21.67;;;;;18.31;49.21;99538.16;6314058;20;3573197;-59
2023/03/21 07:38:51;;;;;;;;;22.33;22.00;;;;;17.66;51.29;99537.91;6284550;20;3583599;-59
2023/03/21 07:41:20;;;;;;;;;23.33;22.00;;;;;18.40;49.98;99531.81;6282706;20;3587898;-59
2023/03/21 07:43:49;;;;;;;;;20.33;20.33;;;;;17.86;50.32;99530.66;6284068;20;3585702;-59
2023/03/21 07:46:18;;;;;;;;;18.00;15.00;;;;;17.49;51.47;99534.94;6282265;20;2824262;-59
2023/03/21 07:48:47;;;;;;;;;25.33;23.33;;;;;18.08;49.89;99543.06;6286358;20;3563826;-58
2023/03/21 07:51:15;;;;;;;;;18.00;18.00;;;;;18.42;48.42;99536.09;6282243;20;3569005;-59
2023/03/21 07:53:47;;;;;;;;;19.33;19.33;;;;;18.44;48.69;99533.25;6282261;20;3576413;-59
2023/03/21 07:56:16;;;;;;;;;17.50;17.50;;;;;18.18;48.68;99533.03;6278814;20;2832581;-60
2023/03/21 07:58:44;;;;;;;;;20.00;20.00;;;;;18.27;49.26;99534.00;6280807;20;2835687;-59
2023/03/21 08:01:13;;;;;;;;;18.50;17.50;;;;;17.91;49.31;99531.09;6279423;20;2827519;-59
2023/03/21 08:03:43;;;;;;;;;20.67;20.67;;;;;18.14;48.77;99527.03;6281973;20;2845174;-59
2023/03/21 08:06:11;;;;;;;;;24.67;21.33;;;;;18.23;48.39;99536.16;6316723;20;3578460;-59
2023/03/21 08:08:40;;;;;;;;;17.00;14.50;;;;;18.15;48.77;99534.19;6279663;20;2816993;-59
2023/03/21 08:11:11;;;;;;;;;16.50;15.00;;;;;18.10;48.36;99530.19;6282172;20;2818027;-59
2023/03/21 08:13:40;;;;;;;;;14.67;12.33;;;;;17.96;48.96;99526.06;6279725;20;3526337;-58
2023/03/21 08:16:09;;;;;;;;;14.00;14.00;;;;;18.46;48.55;99525.78;6279797;20;3479572;-59
2023/03/21 08:18:38;;;;;;;;;14.33;13.00;;;;;18.19;47.71;99518.41;6311627;20;3520123;-58
2023/03/21 08:21:06;;;;;;;;;11.00;11.00;;;;;18.62;47.10;99515.13;6283682;20;2786775;-59
2023/03/21 08:23:36;;;;;;;;;13.50;12.00;;;;;18.39;46.77;99527.38;6283317;20;2738947;-59
2023/03/21 08:26:06;;;;;;;;;12.33;12.33;;;;;18.33;46.89;99530.72;6312244;20;3532650;-59
2023/03/21 08:28:38;;;;;;;;;9.00;9.00;;;;;18.00;47.92;99524.75;6282321;20;3460679;-59
2023/03/21 08:31:11;;;;;;;;;13.00;11.00;;;;;17.91;47.88;99531.09;6313140;20;2786753;-59
2023/03/21 08:33:40;;;;;;;;;14.67;14.67;;;;;18.13;47.66;99530.75;6282410;20;3536887;-60
2023/03/21 08:36:09;;;;;;;;;12.00;11.00;;;;;17.78;48.32;99532.19;6286751;20;2794037;-59
2023/03/21 08:38:38;;;;;;;;;12.00;11.67;;;;;18.37;46.72;99537.53;6278420;20;3508619;-60
2023/03/21 08:41:06;;;;;;;;;12.00;12.00;;;;;18.05;47.19;99532.50;6315355;20;2814859;-59
2023/03/21 08:43:35;;;;;;;;;10.67;10.67;;;;;18.13;47.31;99527.19;6311469;20;3513886;-59
2023/03/21 08:46:04;;;;;;;;;12.50;12.00;;;;;17.90;47.22;99534.78;6311603;20;3465905;-58
2023/03/21 08:48:32;;;;;;;;;11.00;8.00;;;;;17.89;47.12;99536.66;6316103;20;3482560;-59
2023/03/21 08:51:01;;;;;;;;;10.67;10.00;;;;;18.17;46.45;99523.19;6315733;20;2789974;-59
2023/03/21 08:53:30;;;;;;;;;12.00;11.33;;;;;18.70;45.58;99538.00;6321254;20;2815892;-60
2023/03/21 08:55:58;;;;;;;;;17.00;14.50;;;;;18.39;46.67;99535.53;6318247;20;2483714;-59
2023/03/21 08:58:26;;;;;;;;;9.50;9.50;;;;;18.46;45.94;99527.63;6287680;20;2772161;-58
2023/03/21 09:00:55;;;;;;;;;11.33;11.00;;;;;18.62;45.47;99531.44;6286959;20;3507563;-59
2023/03/21 09:03:26;;;;;;;;;11.33;11.33;;;;;19.27;45.69;99530.53;6317290;20;3513798;-59
2023/03/21 09:05:55;;;;;;;;;8.67;8.67;;;;;19.29;44.77;99529.34;6319178;20;2748185;-60
2023/03/21 09:08:23;;;;;;;;;10.67;9.33;;;;;18.84;45.00;99532.09;6316704;20;2773317;-60
2023/03/21 09:10:56;;;;;;;;;9.33;9.00;;;;;19.42;44.65;99525.41;6318108;20;2754505;-59
2023/03/21 09:13:25;;;;;;;;;7.00;7.00;;;;;18.79;44.63;99526.25;6345457;20;2743077;-59
2023/03/21 09:15:57;;;;;;;;;7.40;7.40;;;;;18.74;44.48;99531.25;6344044;20;2740953;-60
2023/03/21 09:18:48;;;;;;;;;7.20;7.20;;;;;19.04;43.11;99508.34;6344008;20;2739886;-59
2023/03/21 09:21:19;;;;;;;;;9.50;7.75;;;;;18.73;43.52;99537.69;6338163;20;2763838;-59
2023/03/21 09:23:51;;;;;;;;;9.00;9.00;;;;;18.51;43.39;99531.66;6286313;20;2757898;-59
2023/03/21 09:26:20;;;;;;;;;9.00;7.00;;;;;18.83;44.21;99533.09;6318701;20;2740065;-59
2023/03/21 09:28:48;;;;;;;;;5.00;5.00;;;;;18.98;42.57;99528.00;6289606;20;2734741;-60
2023/03/21 09:31:22;;;;;;;;;7.40;6.40;;;;;19.32;42.43;99528.19;6312905;20;2737739;-59
2023/03/21 09:33:52;;;;;;;;;6.50;6.50;;;;;19.34;42.66;99520.72;6293833;20;2734686;-59
2023/03/21 09:36:25;;;;;;;;;7.00;7.00;;;;;19.69;41.07;99529.94;6288502;20;2742011;-59
2023/03/21 09:38:55;;;;;;;;;8.50;7.00;;;;;19.42;41.36;99517.25;6294531;20;2739005;-59
2023/03/21 09:41:59;;;;;;;;;8.20;7.00;;;;;20.19;39.93;99529.31;6315058;20;2739901;-59
2023/03/21 09:45:15;;;;;;;;;6.60;6.60;;;;;19.68;39.67;99523.63;6345026;20;2735676;-59
2023/03/21 09:47:52;;;;;;;;;5.40;5.40;;;;;20.01;40.23;99518.47;6341956;20;2735774;-58
2023/03/21 09:50:34;;;;;;;;;5.20;5.20;;;;;19.92;39.15;99520.25;6342282;20;2744072;-59
2023/03/21 09:53:15;;;;;;;;;5.80;5.80;;;;;19.62;39.39;99517.94;6340971;20;2743011;-58
2023/03/21 09:55:45;;;;;;;;;6.00;6.00;;;;;19.33;39.57;99513.59;6340133;20;2735788;-59
2023/03/21 09:58:31;;;;;;;;;4.00;4.00;;;;;18.45;41.33;99507.75;6319385;20;2751455;-59
2023/03/21 10:01:33;;;;;;;;;5.50;5.50;;;;;18.78;41.37;99505.50;6291485;20;2748202;-60
2023/03/21 10:04:05;;;;;;;;;6.00;5.00;;;;;19.19;40.40;99505.94;6289265;20;2744098;-58
2023/03/21 10:06:39;;;;;;;;;3.00;3.00;;;;;19.34;39.36;99509.00;6287694;20;2750432;-59
2023/03/21 10:09:20;;;;;;;;;5.00;5.00;;;;;19.94;39.38;99496.44;6290974;20;2750285;-59
2023/03/21 10:12:20;;;;;;;;;3.00;3.00;;;;;20.55;37.25;99510.97;6310696;20;2752387;-60
2023/03/21 10:14:58;;;;;;;;;2.00;2.00;;;;;21.36;36.68;99504.09;6309368;20;2744064;-60
2023/03/21 10:17:43;;;;;;;;;6.60;4.80;;;;;20.67;36.85;99502.50;6339699;20;2735843;-59
2023/03/21 10:20:21;;;;;;;;;5.60;4.40;;;;;19.77;37.95;99489.13;6339540;20;2744133;-60
2023/03/21 10:22:57;;;;;;;;;4.00;4.00;;;;;20.70;36.38;99496.75;6343359;20;2745097;-61
2023/03/21 10:26:04;;;;;;;;;7.60;5.00;;;;;20.97;36.37;99498.34;6340066;20;2748197;-60
2023/03/21 10:28:40;;;;;;;;;6.00;6.00;;;;;20.34;37.72;99494.97;6306908;20;2732602;-61
2023/03/21 10:31:25;;;;;;;;;5.60;5.40;;;;;19.64;38.54;99497.72;6338563;20;2740032;-59
2023/03/21 10:34:02;;;;;;;;;5.80;5.40;;;;;20.04;38.19;99484.59;6342005;20;2741995;-59
2023/03/21 10:36:33;;;;;;;;;4.60;3.80;;;;;19.29;38.91;99490.41;6338544;20;2741003;-59
2023/03/21 10:39:21;;;;;;;;;4.00;3.20;;;;;18.95;39.40;99487.50;6339964;20;2752374;-59
2023/03/21 10:41:50;;;;;;;;;3.00;3.00;;;;;19.02;39.74;99494.88;6314134;20;2741918;-58
2023/03/21 10:44:20;;;;;;;;;4.60;4.60;;;;;19.07;39.91;99489.84;6343520;20;2735791;-59
2023/03/21 10:47:04;;;;;;;;;3.80;3.80;;;;;19.77;38.52;99483.69;6338442;20;2748302;-59
2023/03/21 10:49:37;;;;;;;;;3.80;3.80;;;;;20.34;38.04;99485.94;6335619;20;2752634;-60
2023/03/21 10:52:30;;;;;;;;;5.60;3.60;;;;;20.39;37.31;99489.03;6337214;20;2739904;-60
2023/03/21 10:55:34;;;;;;;;;3.80;3.80;;;;;20.60;36.40;99481.34;6338954;20;2754537;-60
2023/03/21 10:58:34;;;;;;;;;6.40;5.20;;;;;20.55;36.54;99485.56;6305532;20;2745120;-59
2023/03/21 11:01:11;;;;;;;;;3.00;3.00;;;;;20.22;36.30;99488.13;6284692;20;2738937;-60
2023/03/21 11:03:45;;;;;;;;;7.67;6.00;;;;;20.77;36.11;99490.47;6320797;20;2748208;-59
2023/03/21 11:06:30;;;;;;;;;7.80;4.60;;;;;20.38;36.50;99485.47;6340266;20;2745097;-59
2023/03/21 11:09:08;;;;;;;;;9.33;8.67;;;;;20.75;36.71;99476.13;6314003;20;2757667;-59
2023/03/21 11:11:49;;;;;;;;;5.00;5.00;;;;;20.18;37.63;99478.53;6334940;20;2747213;-59
2023/03/21 11:14:49;;;;;;;;;15.00;12.00;;;;;20.90;35.90;99481.78;6313056;20;3520043;-58
2023/03/21 11:17:23;;;;;;;;;6.00;4.67;;;;;20.72;34.49;99471.00;6318380;20;2747246;-59
2023/03/21 11:19:59;;;;;;;;;5.00;5.00;;;;;20.57;35.09;99464.44;6341069;20;2752458;-59
2023/03/21 11:22:42;;;;;;;;;10.00;7.00;;;;;21.35;35.14;99457.81;6289686;20;2761767;-59
2023/03/21 11:25:31;;;;;;;;;3.00;3.00;;;;;21.88;33.70;99461.91;6316690;20;2752442;-58
2023/03/21 11:28:21;;;;;;;;;11.33;11.33;;;;;21.72;34.48;99462.78;6313099;20;2791056;-60
2023/03/21 11:30:57;;;;;;;;;7.00;7.00;;;;;21.23;35.57;99460.03;6337108;20;2743029;-60
2023/03/21 11:33:45;;;;;;;;;3.00;3.00;;;;;22.25;34.07;99457.78;6336637;20;2750276;-60
2023/03/21 11:36:17;;;;;;;;;5.00;5.00;;;;;20.88;35.94;99458.41;6306847;20;2750278;-60
2023/03/21 11:39:02;;;;;;;;;5.00;5.00;;;;;21.59;34.77;99454.25;6308240;20;2744026;-60
2023/03/21 11:41:34;;;;;;;;;5.40;4.20;;;;;20.51;35.04;99455.03;6336441;20;2746405;-60
2023/03/21 11:44:03;;;;;;;;;5.00;5.00;;;;;19.67;36.89;99445.66;6310655;20;2739923;-60
2023/03/21 11:46:40;;;;;;;;;4.00;4.00;;;;;20.00;37.38;99445.88;6317032;20;2738870;-59